createdAt,value
2018-03-04T12:26:28.655Z,98253
2018-03-04T12:28:56.038Z,98244
2018-03-04T12:31:23.443Z,98251
2018-03-04T12:33:50.873Z,98256
2018-03-04T12:36:18.257Z,98259
2018-03-04T12:38:45.638Z,98263
2018-03-04T12:41:13.021Z,98273
2018-03-04T12:43:40.490Z,98286
2018-03-04T12:46:07.910Z,98297
2018-03-04T12:48:37.062Z,98298
2018-03-04T12:51:04.457Z,98311
2018-03-04T12:53:31.991Z,98319
2018-03-04T12:55:59.411Z,98324
2018-03-04T12:58:26.847Z,98324
2018-03-04T13:00:54.257Z,98318
2018-03-04T13:03:21.651Z,98319
2018-03-04T13:05:49.070Z,98326
2018-03-04T13:08:16.459Z,98339
2018-03-04T13:10:43.903Z,98343
2018-03-04T13:13:11.341Z,98348
2018-03-04T13:15:38.797Z,98351
2018-03-04T13:18:06.166Z,98347
2018-03-04T13:20:33.557Z,98349
2018-03-04T13:23:00.949Z,98352
2018-03-04T13:25:28.370Z,98346
2018-03-04T13:27:55.762Z,98348
2018-03-04T13:30:23.187Z,98355
2018-03-04T13:32:50.585Z,98357
2018-03-04T13:35:17.978Z,98362
2018-03-04T13:37:45.406Z,98368
2018-03-04T13:40:12.901Z,98369
2018-03-04T13:42:40.384Z,98356
2018-03-04T13:45:07.783Z,98364
2018-03-04T13:47:35.186Z,98362
2018-03-04T13:50:02.618Z,98357
2018-03-04T13:52:30.010Z,98362
2018-03-04T13:54:57.399Z,98364
2018-03-04T13:57:24.791Z,98364
2018-03-04T13:59:52.208Z,98364
2018-03-04T14:02:19.626Z,98361
2018-03-04T14:04:47.038Z,98365
2018-03-04T14:07:14.434Z,98361
2018-03-04T14:09:41.822Z,98371
2018-03-04T14:12:09.245Z,98368
2018-03-04T14:14:36.872Z,98365
2018-03-04T14:17:04.257Z,98383
2018-03-04T14:19:32.422Z,98390
2018-03-04T14:21:59.840Z,98405
2018-03-04T14:24:27.314Z,98412
2018-03-04T14:26:54.710Z,98428
2018-03-04T14:29:22.183Z,98436
2018-03-04T14:31:49.592Z,98442
2018-03-04T14:34:17.099Z,98449
2018-03-04T14:36:44.523Z,98458
2018-03-04T14:39:11.926Z,98458
2018-03-04T14:41:39.338Z,98458
2018-03-04T14:44:06.751Z,98461
2018-03-04T14:46:34.173Z,98461
2018-03-04T14:49:01.565Z,98449
2018-03-04T14:51:28.954Z,98458
2018-03-04T14:53:56.340Z,98468
2018-03-04T14:56:23.730Z,98474
2018-03-04T14:58:51.114Z,98472
2018-03-04T15:01:18.511Z,98473
2018-03-04T15:03:45.974Z,98479
2018-03-04T15:06:13.358Z,98479
2018-03-04T15:08:40.769Z,98482
2018-03-04T15:11:08.172Z,98479
2018-03-04T15:13:35.574Z,98481
2018-03-04T15:16:03.004Z,98492
2018-03-04T15:18:30.393Z,98497
2018-03-04T15:20:57.810Z,98501
2018-03-04T15:23:25.214Z,98501
2018-03-04T15:25:52.820Z,98497
2018-03-04T15:28:21.006Z,98509
2018-03-04T15:30:48.390Z,98522
2018-03-04T15:33:15.826Z,98515
2018-03-04T15:35:43.227Z,98518
2018-03-04T15:38:10.665Z,98517
2018-03-04T15:40:38.067Z,98517
2018-03-04T15:43:05.499Z,98521
2018-03-04T15:45:32.913Z,98526
2018-03-04T15:48:00.303Z,98525
2018-03-04T15:50:27.689Z,98523
2018-03-04T15:52:55.106Z,98518
2018-03-04T15:55:22.500Z,98525
2018-03-04T15:57:49.897Z,98527
2018-03-04T16:00:17.326Z,98528
2018-03-04T16:02:44.715Z,98530
2018-03-04T16:05:12.109Z,98539
2018-03-04T16:07:39.542Z,98544
2018-03-04T16:10:06.923Z,98557
2018-03-04T16:12:34.508Z,98564
2018-03-04T16:15:01.905Z,98575
2018-03-04T16:17:29.330Z,98579
2018-03-04T16:19:56.711Z,98576
2018-03-04T16:22:24.176Z,98585
2018-03-04T16:24:51.566Z,98589
2018-03-04T16:27:18.952Z,98592
2018-03-04T16:29:46.346Z,98593
2018-03-04T16:32:13.730Z,98593
2018-03-04T16:34:41.127Z,98600
2018-03-04T16:37:08.533Z,98601
2018-03-04T16:39:35.986Z,98614
2018-03-04T16:42:03.370Z,98616
2018-03-04T16:44:30.760Z,98623
2018-03-04T16:46:58.154Z,98625
2018-03-04T16:49:25.604Z,98622
2018-03-04T16:51:53.003Z,98625
2018-03-04T16:54:20.398Z,98632
2018-03-04T16:56:47.781Z,98639
2018-03-04T16:59:15.222Z,98645
2018-03-04T17:01:42.647Z,98653
2018-03-04T17:04:10.035Z,98658
2018-03-04T17:06:37.475Z,98657
2018-03-04T17:09:04.904Z,98659
2018-03-04T17:11:32.302Z,98664
2018-03-04T17:13:59.717Z,98678
2018-03-04T17:16:27.119Z,98677
2018-03-04T17:18:54.502Z,98675
2018-03-04T17:21:22.001Z,98682
2018-03-04T17:23:49.402Z,98701
2018-03-04T17:26:16.814Z,98706
2018-03-04T17:28:44.198Z,98702
2018-03-04T17:31:11.590Z,98716
2018-03-04T17:33:38.970Z,98718
2018-03-04T17:36:06.415Z,98718
2018-03-04T17:38:33.814Z,98729
2018-03-04T17:41:01.199Z,98732
2018-03-04T17:43:28.665Z,98727
2018-03-04T17:45:56.102Z,98724
2018-03-04T17:48:23.493Z,98736
2018-03-04T17:50:50.969Z,98742
2018-03-04T17:53:18.369Z,98739
2018-03-04T17:55:45.798Z,98744
2018-03-04T17:58:13.188Z,98750
2018-03-04T18:00:40.575Z,98752
2018-03-04T18:03:07.968Z,98752
2018-03-04T18:05:35.398Z,98749
2018-03-04T18:08:02.786Z,98754
2018-03-04T18:10:30.226Z,98764
2018-03-04T18:12:57.645Z,98761
2018-03-04T18:15:25.033Z,98770
2018-03-04T18:17:52.434Z,98773
2018-03-04T18:20:19.876Z,98771
2018-03-04T18:22:47.303Z,98770
2018-03-04T18:25:14.746Z,98770
2018-03-04T18:27:42.207Z,98774
2018-03-04T18:30:09.599Z,98777
2018-03-04T18:32:36.995Z,98786
2018-03-04T18:35:04.389Z,98789
2018-03-04T18:37:31.798Z,98783
2018-03-04T18:39:59.191Z,98791
2018-03-04T18:42:26.584Z,98798
2018-03-04T18:44:54.416Z,98799
2018-03-04T18:47:21.813Z,98804
2018-03-04T18:49:49.244Z,98799
2018-03-04T18:52:16.708Z,98801
2018-03-04T18:54:44.113Z,98810
2018-03-04T18:57:11.521Z,98814
2018-03-04T18:59:38.959Z,98813
2018-03-04T19:02:06.417Z,98819
2018-03-04T19:04:33.851Z,98817
2018-03-04T19:07:01.314Z,98819
2018-03-04T19:09:28.758Z,98830
2018-03-04T19:11:56.193Z,98833
2018-03-04T19:14:23.608Z,98832
2018-03-04T19:16:51.002Z,98832
2018-03-04T19:19:18.422Z,98836
2018-03-04T19:21:46.562Z,98844
2018-03-04T19:24:13.955Z,98848
2018-03-04T19:26:41.382Z,98849
2018-03-04T19:29:08.794Z,98852
2018-03-04T19:31:36.178Z,98854
2018-03-04T19:34:04.194Z,98854
2018-03-04T19:36:31.584Z,98856
2018-03-04T19:38:58.974Z,98854
2018-03-04T19:41:26.394Z,98861
2018-03-04T19:43:53.778Z,98868
2018-03-04T19:46:21.169Z,98866
2018-03-04T19:48:48.679Z,98866
2018-03-04T19:51:16.066Z,98870
2018-03-04T19:53:43.477Z,98870
2018-03-04T19:56:11.016Z,98876
2018-03-04T19:58:38.401Z,98876
2018-03-04T20:01:05.778Z,98884
2018-03-04T20:03:33.206Z,98878
2018-03-04T20:06:00.607Z,98875
2018-03-04T20:08:27.989Z,98874
2018-03-04T20:10:55.383Z,98878
2018-03-04T20:13:22.770Z,98883
2018-03-04T20:15:50.213Z,98885
2018-03-04T20:18:17.621Z,98885
2018-03-04T20:20:45.065Z,98891
2018-03-04T20:23:12.446Z,98889
2018-03-04T20:25:39.869Z,98889
2018-03-04T20:28:07.259Z,98891
2018-03-04T20:30:34.647Z,98893
2018-03-04T20:33:02.058Z,98894
2018-03-04T20:35:29.446Z,98891
2018-03-04T20:37:56.890Z,98893
2018-03-04T20:40:24.274Z,98890
2018-03-04T20:42:51.688Z,98888
2018-03-04T20:45:19.188Z,98892
2018-03-04T20:47:46.712Z,98895
2018-03-04T20:50:14.099Z,98893
2018-03-04T20:52:41.485Z,98890
2018-03-04T20:55:08.867Z,98900
2018-03-04T20:57:36.270Z,98910
2018-03-04T21:00:03.665Z,98908
2018-03-04T21:02:31.078Z,98910
2018-03-04T21:04:58.666Z,98917
2018-03-04T21:07:26.082Z,98918
2018-03-04T21:09:53.473Z,98916
2018-03-04T21:12:20.870Z,98920
2018-03-04T21:14:48.255Z,98923
2018-03-04T21:17:15.724Z,98924
2018-03-04T21:19:43.183Z,98927
2018-03-04T21:22:10.595Z,98931
2018-03-04T21:24:38.026Z,98931
2018-03-04T21:27:05.425Z,98936
2018-03-04T21:29:32.808Z,98941
2018-03-04T21:32:00.230Z,98943
2018-03-04T21:34:27.618Z,98950
2018-03-04T21:36:54.997Z,98951
2018-03-04T21:39:23.054Z,98953
2018-03-04T21:41:50.455Z,98953
2018-03-04T21:44:17.830Z,98957
2018-03-04T21:46:45.366Z,98958
2018-03-04T21:49:12.812Z,98957
2018-03-04T21:51:40.247Z,98957
2018-03-04T21:54:07.626Z,98959
2018-03-04T21:56:35.019Z,98960
2018-03-04T21:59:02.415Z,98966
2018-03-04T22:01:29.841Z,98963
2018-03-04T22:03:57.221Z,98959
2018-03-04T22:06:24.606Z,98958
2018-03-04T22:08:51.994Z,98959
2018-03-04T22:11:19.428Z,98959
2018-03-04T22:13:46.809Z,98961
2018-03-04T22:16:14.193Z,98966
2018-03-04T22:18:41.583Z,98966
2018-03-04T22:21:08.985Z,98968
2018-03-04T22:23:36.451Z,98970
2018-03-04T22:26:03.849Z,98977
2018-03-04T22:28:31.230Z,98975
2018-03-04T22:30:58.616Z,98977
2018-03-04T22:33:26.126Z,98984
2018-03-04T22:35:53.527Z,98985
2018-03-04T22:38:20.906Z,98991
2018-03-04T22:40:48.297Z,98993
2018-03-04T22:43:15.685Z,98992
2018-03-04T22:45:43.075Z,98991
2018-03-04T22:48:10.466Z,98994
2018-03-04T22:50:37.855Z,98996
2018-03-04T22:53:05.472Z,99001
2018-03-04T22:55:32.881Z,98996
2018-03-04T22:58:00.265Z,98999
2018-03-04T23:00:27.668Z,98995
2018-03-04T23:02:55.129Z,98998
2018-03-04T23:05:22.510Z,98998
2018-03-04T23:07:49.896Z,99001
2018-03-04T23:10:17.465Z,98997
2018-03-04T23:12:44.897Z,98996
2018-03-04T23:15:12.333Z,98993
2018-03-04T23:17:39.770Z,98997
2018-03-04T23:20:07.161Z,98998
2018-03-04T23:22:34.598Z,98996
2018-03-04T23:25:02.814Z,99000
2018-03-04T23:27:30.226Z,99002
2018-03-04T23:29:57.625Z,98994
2018-03-04T23:32:25.011Z,98998
2018-03-04T23:34:55.383Z,98994
2018-03-04T23:37:22.769Z,98992
2018-03-04T23:39:50.157Z,98998
2018-03-04T23:42:17.578Z,99003
2018-03-04T23:44:44.962Z,99006
2018-03-04T23:47:12.353Z,99016
2018-03-04T23:49:39.769Z,99009
2018-03-04T23:52:07.158Z,99017
2018-03-04T23:54:34.569Z,99015
2018-03-04T23:57:01.997Z,99014
2018-03-04T23:59:29.462Z,99018
